CST,Max TemperatureF,Mean TemperatureF,Min TemperatureF,Max Dew PointF,MeanDew PointF,Min DewpointF,Max Humidity, Mean Humidity, Min Humidity, Max Sea Level PressureIn, Mean Sea Level PressureIn, Min Sea Level PressureIn, Max VisibilityMiles, Mean VisibilityMiles, Min VisibilityMiles, Max Wind SpeedMPH, Mean Wind SpeedMPH, Max Gust SpeedMPH,PrecipitationIn, CloudCover, Events, WindDirDegrees
2014-1-1,32,20,8,22,11,2,88,78,67,30.48,30.23,30.02,10,6,0,30,16,35,0.00,5,Fog-Snow,354
2014-1-2,27,16,4,15,7,0,91,76,60,30.51,30.46,30.40,10,10,9,13,6,17,0.00,2,,130
2014-1-3,41,27,13,27,20,9,80,67,54,30.39,29.98,29.67,10,10,10,31,19,42,0.00,0,,176
2014-1-4,37,28,19,28,18,15,84,72,59,30.17,30.00,29.63,10,5,1,32,15,38,T,6,Snow,1
2014-1-5,19,11,2,13,0,-11,84,70,55,30.68,30.42,30.13,10,9,2,30,19,35,T,5,Snow,354
2014-1-6,15,5,-6,-1,-10,-16,75,58,40,30.69,30.59,30.40,10,10,9,20,10,25,T,0,Snow,284
2014-1-7,38,22,6,25,15,0,76,64,52,30.36,30.18,30.10,10,10,10,16,8,19,0.00,0,,174
2014-1-8,31,25,19,22,17,12,75,67,58,30.37,30.27,30.14,10,10,8,17,10,24,0.00,3,,57
2014-1-9,34,25,16,31,22,12,89,81,73,30.34,30.15,29.95,8,6,3,17,7,24,0.00,8,,149
2014-1-10,40,37,34,35,33,31,100,90,79,29.90,29.67,29.57,10,6,1,15,8,21,0.14,8,Rain-Snow,238
2014-1-11,50,41,31,33,29,24,92,71,50,29.96,29.88,29.76,10,10,10,22,10,30,0.00,0,,250
2014-1-12,54,44,34,35,30,26,79,62,44,29.76,29.62,29.49,10,10,10,20,9,26,0.00,1,,237
2014-1-13,53,43,33,32,27,23,89,61,32,29.99,29.88,29.76,10,10,10,16,11,20,0.00,1,,269
2014-1-14,47,37,27,30,21,13,75,50,25,30.35,30.15,29.83,10,10,10,30,15,36,T,2,,318
2014-1-15,51,36,21,30,24,18,84,60,36,30.33,30.12,29.86,10,10,10,17,8,21,0.00,4,,219
2014-1-16,52,41,29,27,20,13,70,46,21,30.21,30.02,29.88,10,10,10,41,22,52,0.00,1,,317
2014-1-17,43,34,24,18,15,11,68,49,29,30.29,30.18,29.96,10,10,9,25,12,30,0.00,1,Snow,278
2014-1-18,53,39,24,24,22,18,69,51,32,30.19,30.00,29.86,10,10,10,41,19,51,0.00,1,,297
2014-1-19,68,46,23,26,23,19,81,49,17,30.16,29.97,29.83,10,10,10,20,9,25,0.00,0,,218
2014-1-20,56,38,19,27,20,4,81,53,24,30.47,30.12,29.86,10,10,10,36,14,43,0.00,0,Rain,347
2014-1-21,31,19,7,11,0,-6,60,42,24,30.57,30.37,30.13,10,10,10,29,11,36,0.00,0,,230
2014-1-22,45,28,11,22,12,-8,77,54,30,30.61,30.29,30.16,10,10,9,30,15,40,0.00,1,Snow,344
2014-1-23,21,13,5,-5,-8,-10,60,44,28,30.94,30.82,30.64,10,10,9,28,12,34,0.00,0,Snow,329
2014-1-24,55,32,9,25,10,-5,59,41,22,30.67,30.22,29.90,10,10,10,29,15,34,0.00,2,,223
2014-1-25,57,46,34,31,27,24,70,53,35,30.09,29.97,29.78,10,10,10,29,13,34,0.00,1,,282
2014-1-26,63,42,21,31,22,-8,70,47,23,30.33,29.86,29.69,10,10,7,51,19,59,T,3,Rain,318
2014-1-27,21,15,9,-3,-9,-11,53,41,28,30.57,30.51,30.37,10,10,10,32,13,40,T,3,,9
2014-1-28,29,17,4,8,0,-4,69,48,27,30.53,30.44,30.33,10,10,10,18,8,22,0.00,2,,229
2014-1-29,49,29,8,16,8,1,80,51,21,30.32,30.06,29.74,10,10,9,29,14,39,0.00,0,Snow,185
2014-1-30,50,40,30,23,15,8,49,39,29,30.01,29.78,29.55,10,10,9,31,18,40,0.00,3,Snow,333
2014-1-31,30,26,21,19,16,11,92,71,49,30.10,29.99,29.89,10,7,0,21,12,25,0.00,7,Fog-Snow,32